sensor_id;sensor_type;location;lat;lon;timestamp;temperature;humidity
9998;DHT22;5038;53.064;8.624;2023-06-22T00:01:33;20.20;99.90
9998;DHT22;5038;53.064;8.624;2023-06-22T00:04:02;20.10;99.90
9998;DHT22;5038;53.064;8.624;2023-06-22T00:06:30;20.10;99.90
9998;DHT22;5038;53.064;8.624;2023-06-22T00:08:58;20.10;99.90
9998;DHT22;5038;53.064;8.624;2023-06-22T00:11:26;20.10;99.90
9998;DHT22;5038;53.064;8.624;2023-06-22T00:13:54;20.00;99.90
9998;DHT22;5038;53.064;8.624;2023-06-22T00:16:24;20.00;99.90
9998;DHT22;5038;53.064;8.624;2023-06-22T00:18:52;20.00;99.90
9998;DHT22;5038;53.064;8.624;2023-06-22T00:21:20;20.00;99.90
9998;DHT22;5038;53.064;8.624;2023-06-22T00:23:48;19.90;99.90
9998;DHT22;5038;53.064;8.624;2023-06-22T00:26:16;19.90;99.90
9998;DHT22;5038;53.064;8.624;2023-06-22T00:28:44;19.90;99.90
9998;DHT22;5038;53.064;8.624;2023-06-22T00:31:12;19.90;99.90
9998;DHT22;5038;53.064;8.624;2023-06-22T00:33:42;19.80;99.90
9998;DHT22;5038;53.064;8.624;2023-06-22T00:36:10;19.80;99.90
9998;DHT22;5038;53.064;8.624;2023-06-22T00:38:40;19.80;99.90
9998;DHT22;5038;53.064;8.624;2023-06-22T00:41:08;19.80;99.90
9998;DHT22;5038;53.064;8.624;2023-06-22T00:43:36;19.80;99.90
9998;DHT22;5038;53.064;8.624;2023-06-22T00:46:04;19.80;99.90
9998;DHT22;5038;53.064;8.624;2023-06-22T00:48:33;19.70;99.90
9998;DHT22;5038;53.064;8.624;2023-06-22T00:51:05;19.70;99.90
9998;DHT22;5038;53.064;8.624;2023-06-22T00:53:33;19.70;99.90
9998;DHT22;5038;53.064;8.624;2023-06-22T00:56:04;19.70;99.90
9998;DHT22;5038;53.064;8.624;2023-06-22T00:58:36;19.70;99.90
9998;DHT22;5038;53.064;8.624;2023-06-22T01:01:04;19.60;99.90
9998;DHT22;5038;53.064;8.624;2023-06-22T01:03:32;19.60;99.90
9998;DHT22;5038;53.064;8.624;2023-06-22T01:06:10;19.60;99.90
9998;DHT22;5038;53.064;8.624;2023-06-22T01:08:47;19.60;99.90
9998;DHT22;5038;53.064;8.624;2023-06-22T01:11:19;19.60;99.90
9998;DHT22;5038;53.064;8.624;2023-06-22T01:13:56;19.60;99.90
9998;DHT22;5038;53.064;8.624;2023-06-22T01:16:29;19.60;99.90
9998;DHT22;5038;53.064;8.624;2023-06-22T01:19:02;19.50;99.90
9998;DHT22;5038;53.064;8.624;2023-06-22T01:21:34;19.50;99.90
9998;DHT22;5038;53.064;8.624;2023-06-22T01:24:14;19.50;99.90
9998;DHT22;5038;53.064;8.624;2023-06-22T01:26:56;19.50;99.90
9998;DHT22;5038;53.064;8.624;2023-06-22T01:29:29;19.40;99.90
9998;DHT22;5038;53.064;8.624;2023-06-22T01:31:59;19.40;99.90
9998;DHT22;5038;53.064;8.624;2023-06-22T01:34:29;19.40;99.90
9998;DHT22;5038;53.064;8.624;2023-06-22T01:36:59;19.40;99.90
9998;DHT22;5038;53.064;8.624;2023-06-22T01:39:29;19.40;99.90
9998;DHT22;5038;53.064;8.624;2023-06-22T01:41:58;19.40;99.90
9998;DHT22;5038;53.064;8.624;2023-06-22T01:44:29;19.40;99.90
9998;DHT22;5038;53.064;8.624;2023-06-22T01:46:57;19.40;99.90
9998;DHT22;5038;53.064;8.624;2023-06-22T01:49:26;19.30;99.90
9998;DHT22;5038;53.064;8.624;2023-06-22T01:51:55;19.30;99.90
9998;DHT22;5038;53.064;8.624;2023-06-22T01:54:23;19.30;99.90
9998;DHT22;5038;53.064;8.624;2023-06-22T01:56:51;19.20;99.90
9998;DHT22;5038;53.064;8.624;2023-06-22T01:59:26;19.20;99.90
9998;DHT22;5038;53.064;8.624;2023-06-22T02:02:02;19.20;99.90
9998;DHT22;5038;53.064;8.624;2023-06-22T02:04:36;19.20;99.90
9998;DHT22;5038;53.064;8.624;2023-06-22T02:07:11;19.20;99.90
9998;DHT22;5038;53.064;8.624;2023-06-22T02:09:43;19.10;99.90
9998;DHT22;5038;53.064;8.624;2023-06-22T02:12:15;19.10;99.90
9998;DHT22;5038;53.064;8.624;2023-06-22T02:14:45;19.10;99.90
9998;DHT22;5038;53.064;8.624;2023-06-22T02:17:17;19.00;99.90
9998;DHT22;5038;53.064;8.624;2023-06-22T02:19:45;19.00;99.90
9998;DHT22;5038;53.064;8.624;2023-06-22T02:22:14;19.00;99.90
9998;DHT22;5038;53.064;8.624;2023-06-22T02:24:43;19.00;99.90
9998;DHT22;5038;53.064;8.624;2023-06-22T02:27:11;19.00;99.90
9998;DHT22;5038;53.064;8.624;2023-06-22T02:29:40;18.90;99.90
9998;DHT22;5038;53.064;8.624;2023-06-22T02:32:09;18.90;99.90
9998;DHT22;5038;53.064;8.624;2023-06-22T02:34:39;18.90;99.90
9998;DHT22;5038;53.064;8.624;2023-06-22T02:37:07;18.80;99.90
9998;DHT22;5038;53.064;8.624;2023-06-22T02:39:39;18.80;99.90
9998;DHT22;5038;53.064;8.624;2023-06-22T02:42:07;18.80;99.90
9998;DHT22;5038;53.064;8.624;2023-06-22T02:44:38;18.80;99.90
9998;DHT22;5038;53.064;8.624;2023-06-22T02:47:06;18.80;99.90
9998;DHT22;5038;53.064;8.624;2023-06-22T02:49:35;18.70;99.90
9998;DHT22;5038;53.064;8.624;2023-06-22T02:52:05;18.70;99.90
9998;DHT22;5038;53.064;8.624;2023-06-22T02:54:33;18.70;99.90
9998;DHT22;5038;53.064;8.624;2023-06-22T02:57:01;18.70;99.90
9998;DHT22;5038;53.064;8.624;2023-06-22T02:59:31;18.60;99.90
9998;DHT22;5038;53.064;8.624;2023-06-22T03:02:07;18.60;99.90
9998;DHT22;5038;53.064;8.624;2023-06-22T03:04:36;18.60;99.90
9998;DHT22;5038;53.064;8.624;2023-06-22T03:07:05;18.60;99.90
9998;DHT22;5038;53.064;8.624;2023-06-22T03:09:34;18.50;99.90
9998;DHT22;5038;53.064;8.624;2023-06-22T03:12:03;18.50;99.90
9998;DHT22;5038;53.064;8.624;2023-06-22T03:14:42;18.50;99.90
9998;DHT22;5038;53.064;8.624;2023-06-22T03:17:10;18.50;99.90
9998;DHT22;5038;53.064;8.624;2023-06-22T03:19:38;18.50;99.90
9998;DHT22;5038;53.064;8.624;2023-06-22T03:22:08;18.50;99.90
9998;DHT22;5038;53.064;8.624;2023-06-22T03:24:39;18.50;99.90
9998;DHT22;5038;53.064;8.624;2023-06-22T03:27:07;18.40;99.90
9998;DHT22;5038;53.064;8.624;2023-06-22T03:29:35;18.40;99.90
9998;DHT22;5038;53.064;8.624;2023-06-22T03:32:04;18.40;99.90
9998;DHT22;5038;53.064;8.624;2023-06-22T03:34:33;18.40;99.90
9998;DHT22;5038;53.064;8.624;2023-06-22T03:37:01;18.40;99.90
9998;DHT22;5038;53.064;8.624;2023-06-22T03:39:31;18.40;99.90
9998;DHT22;5038;53.064;8.624;2023-06-22T03:42:00;18.40;99.90
9998;DHT22;5038;53.064;8.624;2023-06-22T03:44:28;18.40;99.90
9998;DHT22;5038;53.064;8.624;2023-06-22T03:46:56;18.40;99.90
9998;DHT22;5038;53.064;8.624;2023-06-22T03:49:24;18.40;99.90
9998;DHT22;5038;53.064;8.624;2023-06-22T03:51:52;18.40;99.90
9998;DHT22;5038;53.064;8.624;2023-06-22T03:54:20;18.40;99.90
9998;DHT22;5038;53.064;8.624;2023-06-22T03:56:50;18.40;99.90
9998;DHT22;5038;53.064;8.624;2023-06-22T03:59:18;18.40;99.90
9998;DHT22;5038;53.064;8.624;2023-06-22T04:01:46;18.40;99.90
9998;DHT22;5038;53.064;8.624;2023-06-22T04:04:14;18.30;99.90
9998;DHT22;5038;53.064;8.624;2023-06-22T04:06:42;18.40;99.90
9998;DHT22;5038;53.064;8.624;2023-06-22T04:09:10;18.40;99.90
9998;DHT22;5038;53.064;8.624;2023-06-22T04:11:39;18.40;99.90
9998;DHT22;5038;53.064;8.624;2023-06-22T04:14:08;18.40;99.90
9998;DHT22;5038;53.064;8.624;2023-06-22T04:16:36;18.40;99.90
9998;DHT22;5038;53.064;8.624;2023-06-22T04:19:04;18.40;99.90
9998;DHT22;5038;53.064;8.624;2023-06-22T04:21:32;18.40;99.90
9998;DHT22;5038;53.064;8.624;2023-06-22T04:24:00;18.50;99.90
9998;DHT22;5038;53.064;8.624;2023-06-22T04:26:29;18.50;99.90
9998;DHT22;5038;53.064;8.624;2023-06-22T04:28:57;18.50;99.90
9998;DHT22;5038;53.064;8.624;2023-06-22T04:31:26;18.50;99.90
9998;DHT22;5038;53.064;8.624;2023-06-22T04:34:00;18.50;99.90
9998;DHT22;5038;53.064;8.624;2023-06-22T04:36:35;18.50;99.90
9998;DHT22;5038;53.064;8.624;2023-06-22T04:39:06;18.50;99.90
9998;DHT22;5038;53.064;8.624;2023-06-22T04:41:36;18.50;99.90
9998;DHT22;5038;53.064;8.624;2023-06-22T04:44:10;18.60;99.90
9998;DHT22;5038;53.064;8.624;2023-06-22T04:46:39;18.60;99.90
9998;DHT22;5038;53.064;8.624;2023-06-22T04:49:08;18.60;99.90
9998;DHT22;5038;53.064;8.624;2023-06-22T04:51:39;18.60;99.90
9998;DHT22;5038;53.064;8.624;2023-06-22T04:54:08;18.60;99.90
9998;DHT22;5038;53.064;8.624;2023-06-22T04:56:36;18.70;99.90
9998;DHT22;5038;53.064;8.624;2023-06-22T04:59:07;18.70;99.90
9998;DHT22;5038;53.064;8.624;2023-06-22T05:01:41;18.70;99.90
9998;DHT22;5038;53.064;8.624;2023-06-22T05:04:09;18.70;99.90
9998;DHT22;5038;53.064;8.624;2023-06-22T05:06:37;18.70;99.90
9998;DHT22;5038;53.064;8.624;2023-06-22T05:09:07;18.70;99.90
9998;DHT22;5038;53.064;8.624;2023-06-22T05:11:35;18.70;99.90
9998;DHT22;5038;53.064;8.624;2023-06-22T05:14:03;18.80;99.90
9998;DHT22;5038;53.064;8.624;2023-06-22T05:16:31;18.80;99.90
9998;DHT22;5038;53.064;8.624;2023-06-22T05:19:01;18.80;99.90
9998;DHT22;5038;53.064;8.624;2023-06-22T05:21:30;18.80;99.90
9998;DHT22;5038;53.064;8.624;2023-06-22T05:23:59;18.90;99.90
9998;DHT22;5038;53.064;8.624;2023-06-22T05:26:30;19.00;99.90
9998;DHT22;5038;53.064;8.624;2023-06-22T05:28:59;19.00;99.90
9998;DHT22;5038;53.064;8.624;2023-06-22T05:31:28;19.10;99.90
9998;DHT22;5038;53.064;8.624;2023-06-22T05:33:56;19.20;99.90
9998;DHT22;5038;53.064;8.624;2023-06-22T05:36:26;19.30;99.90
9998;DHT22;5038;53.064;8.624;2023-06-22T05:38:56;19.40;99.90
9998;DHT22;5038;53.064;8.624;2023-06-22T05:41:25;19.40;99.90
9998;DHT22;5038;53.064;8.624;2023-06-22T05:43:53;19.50;99.90
9998;DHT22;5038;53.064;8.624;2023-06-22T05:46:21;19.60;99.90
9998;DHT22;5038;53.064;8.624;2023-06-22T05:48:49;19.70;99.90
9998;DHT22;5038;53.064;8.624;2023-06-22T05:51:17;19.80;99.90
9998;DHT22;5038;53.064;8.624;2023-06-22T05:53:47;20.00;99.90
9998;DHT22;5038;53.064;8.624;2023-06-22T05:56:17;20.10;99.90
9998;DHT22;5038;53.064;8.624;2023-06-22T05:58:46;20.20;99.90
9998;DHT22;5038;53.064;8.624;2023-06-22T06:01:14;20.30;99.90
9998;DHT22;5038;53.064;8.624;2023-06-22T06:03:42;20.30;99.90
9998;DHT22;5038;53.064;8.624;2023-06-22T06:06:11;20.40;99.90
9998;DHT22;5038;53.064;8.624;2023-06-22T06:08:40;20.40;99.90
9998;DHT22;5038;53.064;8.624;2023-06-22T06:11:10;20.40;99.90
9998;DHT22;5038;53.064;8.624;2023-06-22T06:13:38;20.40;99.90
9998;DHT22;5038;53.064;8.624;2023-06-22T06:16:06;20.40;99.90
9998;DHT22;5038;53.064;8.624;2023-06-22T06:18:34;20.40;99.90
9998;DHT22;5038;53.064;8.624;2023-06-22T06:21:04;20.50;99.90
9998;DHT22;5038;53.064;8.624;2023-06-22T06:23:32;20.60;99.90
9998;DHT22;5038;53.064;8.624;2023-06-22T06:26:00;20.70;99.90
9998;DHT22;5038;53.064;8.624;2023-06-22T06:28:30;20.90;99.90
9998;DHT22;5038;53.064;8.624;2023-06-22T06:30:58;21.10;99.90
9998;DHT22;5038;53.064;8.624;2023-06-22T06:33:26;21.30;99.90
9998;DHT22;5038;53.064;8.624;2023-06-22T06:35:55;21.50;99.90
9998;DHT22;5038;53.064;8.624;2023-06-22T06:38:23;21.60;99.90
9998;DHT22;5038;53.064;8.624;2023-06-22T06:40:51;21.80;99.90
9998;DHT22;5038;53.064;8.624;2023-06-22T06:43:19;21.90;99.90
9998;DHT22;5038;53.064;8.624;2023-06-22T06:45:48;22.10;99.90
9998;DHT22;5038;53.064;8.624;2023-06-22T06:48:18;22.20;99.90
9998;DHT22;5038;53.064;8.624;2023-06-22T06:50:46;22.30;99.90
9998;DHT22;5038;53.064;8.624;2023-06-22T06:53:14;22.40;99.90
9998;DHT22;5038;53.064;8.624;2023-06-22T06:55:43;22.60;99.90
9998;DHT22;5038;53.064;8.624;2023-06-22T06:58:12;22.70;99.90
9998;DHT22;5038;53.064;8.624;2023-06-22T07:00:40;22.80;99.90
9998;DHT22;5038;53.064;8.624;2023-06-22T07:03:10;22.90;99.90
9998;DHT22;5038;53.064;8.624;2023-06-22T07:05:38;22.90;99.90
9998;DHT22;5038;53.064;8.624;2023-06-22T07:08:06;23.00;99.90
9998;DHT22;5038;53.064;8.624;2023-06-22T07:10:34;23.10;99.90
9998;DHT22;5038;53.064;8.624;2023-06-22T07:13:02;23.20;99.90
9998;DHT22;5038;53.064;8.624;2023-06-22T07:15:30;23.30;99.90
9998;DHT22;5038;53.064;8.624;2023-06-22T07:17:59;23.30;99.90
9998;DHT22;5038;53.064;8.624;2023-06-22T07:20:28;23.40;99.90
9998;DHT22;5038;53.064;8.624;2023-06-22T07:22:57;23.50;99.90
9998;DHT22;5038;53.064;8.624;2023-06-22T07:25:26;23.50;99.90
9998;DHT22;5038;53.064;8.624;2023-06-22T07:27:59;23.60;99.90
9998;DHT22;5038;53.064;8.624;2023-06-22T07:30:28;23.70;99.90
9998;DHT22;5038;53.064;8.624;2023-06-22T07:32:58;23.80;99.90
9998;DHT22;5038;53.064;8.624;2023-06-22T07:35:32;23.90;99.90
9998;DHT22;5038;53.064;8.624;2023-06-22T07:38:00;24.00;99.90
9998;DHT22;5038;53.064;8.624;2023-06-22T07:40:32;24.10;99.90
9998;DHT22;5038;53.064;8.624;2023-06-22T07:43:01;24.20;99.90
9998;DHT22;5038;53.064;8.624;2023-06-22T07:45:30;24.30;99.90
9998;DHT22;5038;53.064;8.624;2023-06-22T07:48:00;24.40;99.90
9998;DHT22;5038;53.064;8.624;2023-06-22T07:50:28;24.50;99.90
9998;DHT22;5038;53.064;8.624;2023-06-22T07:52:59;24.60;99.90
9998;DHT22;5038;53.064;8.624;2023-06-22T07:55:27;24.60;99.90
9998;DHT22;5038;53.064;8.624;2023-06-22T07:57:56;24.60;99.90
9998;DHT22;5038;53.064;8.624;2023-06-22T08:00:25;24.70;99.90
9998;DHT22;5038;53.064;8.624;2023-06-22T08:02:53;24.70;99.90
9998;DHT22;5038;53.064;8.624;2023-06-22T08:05:21;24.70;99.90
9998;DHT22;5038;53.064;8.624;2023-06-22T08:07:50;24.80;99.90
9998;DHT22;5038;53.064;8.624;2023-06-22T08:10:19;24.80;99.90
9998;DHT22;5038;53.064;8.624;2023-06-22T08:12:48;24.90;99.90
9998;DHT22;5038;53.064;8.624;2023-06-22T08:15:16;24.90;99.90
9998;DHT22;5038;53.064;8.624;2023-06-22T08:17:44;25.00;99.90
9998;DHT22;5038;53.064;8.624;2023-06-22T08:20:13;25.00;99.90
9998;DHT22;5038;53.064;8.624;2023-06-22T08:22:42;25.10;99.90
9998;DHT22;5038;53.064;8.624;2023-06-22T08:25:11;25.10;99.90
9998;DHT22;5038;53.064;8.624;2023-06-22T08:27:45;25.20;99.90
9998;DHT22;5038;53.064;8.624;2023-06-22T08:30:13;25.30;99.90
9998;DHT22;5038;53.064;8.624;2023-06-22T08:32:41;25.30;99.90
9998;DHT22;5038;53.064;8.624;2023-06-22T08:35:10;25.50;99.90
9998;DHT22;5038;53.064;8.624;2023-06-22T08:37:38;25.50;99.90
9998;DHT22;5038;53.064;8.624;2023-06-22T08:40:08;25.60;99.90
9998;DHT22;5038;53.064;8.624;2023-06-22T08:42:39;25.60;99.90
9998;DHT22;5038;53.064;8.624;2023-06-22T08:45:10;25.60;99.90
9998;DHT22;5038;53.064;8.624;2023-06-22T08:47:39;25.70;99.90
9998;DHT22;5038;53.064;8.624;2023-06-22T08:50:08;25.70;99.90
9998;DHT22;5038;53.064;8.624;2023-06-22T08:52:38;25.80;99.90
9998;DHT22;5038;53.064;8.624;2023-06-22T08:55:08;25.90;99.90
9998;DHT22;5038;53.064;8.624;2023-06-22T08:57:37;25.90;99.90
9998;DHT22;5038;53.064;8.624;2023-06-22T09:00:07;25.90;99.90
9998;DHT22;5038;53.064;8.624;2023-06-22T09:02:45;26.00;99.90
9998;DHT22;5038;53.064;8.624;2023-06-22T09:05:14;26.10;99.90
9998;DHT22;5038;53.064;8.624;2023-06-22T09:07:43;26.20;99.90
9998;DHT22;5038;53.064;8.624;2023-06-22T09:10:11;26.20;99.90
9998;DHT22;5038;53.064;8.624;2023-06-22T09:12:39;26.20;99.90
9998;DHT22;5038;53.064;8.624;2023-06-22T09:15:08;26.30;99.90
9998;DHT22;5038;53.064;8.624;2023-06-22T09:17:42;26.30;99.90
9998;DHT22;5038;53.064;8.624;2023-06-22T09:20:12;26.30;99.90
9998;DHT22;5038;53.064;8.624;2023-06-22T09:22:41;26.40;99.90
9998;DHT22;5038;53.064;8.624;2023-06-22T09:25:09;26.40;99.90
9998;DHT22;5038;53.064;8.624;2023-06-22T09:27:37;26.50;99.90
9998;DHT22;5038;53.064;8.624;2023-06-22T09:30:06;26.50;99.90
9998;DHT22;5038;53.064;8.624;2023-06-22T09:32:35;26.50;99.90
9998;DHT22;5038;53.064;8.624;2023-06-22T09:35:05;26.50;99.90
9998;DHT22;5038;53.064;8.624;2023-06-22T09:37:35;26.60;99.90
9998;DHT22;5038;53.064;8.624;2023-06-22T09:40:04;26.70;99.90
9998;DHT22;5038;53.064;8.624;2023-06-22T09:42:36;26.70;99.90
9998;DHT22;5038;53.064;8.624;2023-06-22T09:45:05;26.80;99.90
9998;DHT22;5038;53.064;8.624;2023-06-22T09:47:33;26.80;99.90
9998;DHT22;5038;53.064;8.624;2023-06-22T09:50:02;26.90;99.90
9998;DHT22;5038;53.064;8.624;2023-06-22T09:52:30;26.90;99.90
9998;DHT22;5038;53.064;8.624;2023-06-22T09:55:15;26.90;99.90
9998;DHT22;5038;53.064;8.624;2023-06-22T09:57:43;26.80;99.90
9998;DHT22;5038;53.064;8.624;2023-06-22T10:00:13;26.80;99.90
9998;DHT22;5038;53.064;8.624;2023-06-22T10:02:42;26.80;99.90
9998;DHT22;5038;53.064;8.624;2023-06-22T10:05:11;26.90;99.90
9998;DHT22;5038;53.064;8.624;2023-06-22T10:07:40;26.90;99.90
9998;DHT22;5038;53.064;8.624;2023-06-22T10:10:10;27.00;99.90
9998;DHT22;5038;53.064;8.624;2023-06-22T10:12:45;27.00;99.90
9998;DHT22;5038;53.064;8.624;2023-06-22T10:15:14;27.00;99.90
9998;DHT22;5038;53.064;8.624;2023-06-22T10:17:43;27.00;99.90
9998;DHT22;5038;53.064;8.624;2023-06-22T10:20:11;27.00;99.90
9998;DHT22;5038;53.064;8.624;2023-06-22T10:22:40;27.00;99.90
9998;DHT22;5038;53.064;8.624;2023-06-22T10:25:09;27.10;99.90
9998;DHT22;5038;53.064;8.624;2023-06-22T10:27:38;27.10;99.90
9998;DHT22;5038;53.064;8.624;2023-06-22T10:30:10;27.10;99.90
9998;DHT22;5038;53.064;8.624;2023-06-22T10:32:40;27.10;99.90
9998;DHT22;5038;53.064;8.624;2023-06-22T10:35:09;27.10;99.80
9998;DHT22;5038;53.064;8.624;2023-06-22T10:37:40;27.20;99.90
9998;DHT22;5038;53.064;8.624;2023-06-22T10:40:11;27.20;99.90
9998;DHT22;5038;53.064;8.624;2023-06-22T10:42:39;27.20;99.90
9998;DHT22;5038;53.064;8.624;2023-06-22T10:45:09;27.20;99.90
9998;DHT22;5038;53.064;8.624;2023-06-22T10:47:37;27.30;99.90
9998;DHT22;5038;53.064;8.624;2023-06-22T10:50:06;27.30;99.90
9998;DHT22;5038;53.064;8.624;2023-06-22T10:52:35;27.30;99.90
9998;DHT22;5038;53.064;8.624;2023-06-22T10:55:03;27.30;99.90
9998;DHT22;5038;53.064;8.624;2023-06-22T10:57:31;27.40;99.90
9998;DHT22;5038;53.064;8.624;2023-06-22T11:00:00;27.40;99.90
9998;DHT22;5038;53.064;8.624;2023-06-22T11:02:29;27.50;99.90
9998;DHT22;5038;53.064;8.624;2023-06-22T11:04:57;27.50;99.90
9998;DHT22;5038;53.064;8.624;2023-06-22T11:07:27;27.60;99.90
9998;DHT22;5038;53.064;8.624;2023-06-22T11:09:55;27.60;99.70
9998;DHT22;5038;53.064;8.624;2023-06-22T11:12:23;27.70;99.60
9998;DHT22;5038;53.064;8.624;2023-06-22T11:14:51;27.70;99.60
9998;DHT22;5038;53.064;8.624;2023-06-22T11:17:19;27.70;99.60
9998;DHT22;5038;53.064;8.624;2023-06-22T11:19:49;27.70;99.60
9998;DHT22;5038;53.064;8.624;2023-06-22T11:22:17;27.70;99.60
9998;DHT22;5038;53.064;8.624;2023-06-22T11:24:45;27.70;99.50
9998;DHT22;5038;53.064;8.624;2023-06-22T11:27:13;27.70;99.50
9998;DHT22;5038;53.064;8.624;2023-06-22T11:29:41;27.70;99.40
9998;DHT22;5038;53.064;8.624;2023-06-22T11:32:10;27.70;99.20
9998;DHT22;5038;53.064;8.624;2023-06-22T11:34:40;27.70;99.20
9998;DHT22;5038;53.064;8.624;2023-06-22T11:37:10;27.70;99.20
9998;DHT22;5038;53.064;8.624;2023-06-22T11:39:38;27.80;99.20
9998;DHT22;5038;53.064;8.624;2023-06-22T11:42:14;27.80;99.20
9998;DHT22;5038;53.064;8.624;2023-06-22T11:44:42;27.80;99.10
9998;DHT22;5038;53.064;8.624;2023-06-22T11:47:10;27.90;99.10
9998;DHT22;5038;53.064;8.624;2023-06-22T11:49:39;28.00;99.10
9998;DHT22;5038;53.064;8.624;2023-06-22T11:52:07;28.10;99.10
9998;DHT22;5038;53.064;8.624;2023-06-22T11:54:36;28.10;99.00
9998;DHT22;5038;53.064;8.624;2023-06-22T11:57:05;28.10;98.90
9998;DHT22;5038;53.064;8.624;2023-06-22T11:59:33;28.10;98.80
9998;DHT22;5038;53.064;8.624;2023-06-22T12:02:01;28.10;98.80
9998;DHT22;5038;53.064;8.624;2023-06-22T12:04:30;28.10;98.80
9998;DHT22;5038;53.064;8.624;2023-06-22T12:06:58;28.10;98.70
9998;DHT22;5038;53.064;8.624;2023-06-22T12:09:26;28.10;98.60
9998;DHT22;5038;53.064;8.624;2023-06-22T12:11:56;28.10;98.90
9998;DHT22;5038;53.064;8.624;2023-06-22T12:14:24;28.10;98.60
9998;DHT22;5038;53.064;8.624;2023-06-22T12:16:52;28.10;98.60
9998;DHT22;5038;53.064;8.624;2023-06-22T12:19:20;28.20;98.60
9998;DHT22;5038;53.064;8.624;2023-06-22T12:21:48;28.20;98.50
9998;DHT22;5038;53.064;8.624;2023-06-22T12:24:16;28.20;98.50
9998;DHT22;5038;53.064;8.624;2023-06-22T12:26:44;28.20;98.70
9998;DHT22;5038;53.064;8.624;2023-06-22T12:29:13;28.20;98.50
9998;DHT22;5038;53.064;8.624;2023-06-22T12:31:42;28.20;98.30
9998;DHT22;5038;53.064;8.624;2023-06-22T12:34:10;28.20;98.10
9998;DHT22;5038;53.064;8.624;2023-06-22T12:36:38;28.20;98.00
9998;DHT22;5038;53.064;8.624;2023-06-22T12:39:06;28.10;98.00
9998;DHT22;5038;53.064;8.624;2023-06-22T12:41:34;28.10;98.00
9998;DHT22;5038;53.064;8.624;2023-06-22T12:44:02;28.00;98.00
9998;DHT22;5038;53.064;8.624;2023-06-22T12:46:32;28.10;98.00
9998;DHT22;5038;53.064;8.624;2023-06-22T12:49:04;28.00;97.90
9998;DHT22;5038;53.064;8.624;2023-06-22T12:51:32;28.00;98.00
9998;DHT22;5038;53.064;8.624;2023-06-22T12:54:01;28.00;97.90
9998;DHT22;5038;53.064;8.624;2023-06-22T12:56:29;27.90;97.90
9998;DHT22;5038;53.064;8.624;2023-06-22T12:58:57;27.90;97.80
9998;DHT22;5038;53.064;8.624;2023-06-22T13:01:26;27.90;97.80
9998;DHT22;5038;53.064;8.624;2023-06-22T13:03:56;27.90;97.70
9998;DHT22;5038;53.064;8.624;2023-06-22T13:06:24;27.90;97.70
9998;DHT22;5038;53.064;8.624;2023-06-22T13:08:52;27.90;97.80
9998;DHT22;5038;53.064;8.624;2023-06-22T13:11:23;27.80;97.80
9998;DHT22;5038;53.064;8.624;2023-06-22T13:13:51;27.80;97.90
9998;DHT22;5038;53.064;8.624;2023-06-22T13:16:19;27.80;97.90
9998;DHT22;5038;53.064;8.624;2023-06-22T13:18:48;27.80;97.90
9998;DHT22;5038;53.064;8.624;2023-06-22T13:21:18;27.80;97.90
9998;DHT22;5038;53.064;8.624;2023-06-22T13:23:46;27.80;97.80
9998;DHT22;5038;53.064;8.624;2023-06-22T13:26:14;27.80;97.80
9998;DHT22;5038;53.064;8.624;2023-06-22T13:28:42;27.80;97.80
9998;DHT22;5038;53.064;8.624;2023-06-22T13:31:10;27.80;97.80
9998;DHT22;5038;53.064;8.624;2023-06-22T13:33:39;27.80;97.80
9998;DHT22;5038;53.064;8.624;2023-06-22T13:36:07;27.80;98.10
9998;DHT22;5038;53.064;8.624;2023-06-22T13:38:37;27.80;97.70
9998;DHT22;5038;53.064;8.624;2023-06-22T13:41:06;27.80;98.00
9998;DHT22;5038;53.064;8.624;2023-06-22T13:43:34;27.70;97.70
9998;DHT22;5038;53.064;8.624;2023-06-22T13:46:02;27.70;97.70
9998;DHT22;5038;53.064;8.624;2023-06-22T13:48:30;27.70;97.80
9998;DHT22;5038;53.064;8.624;2023-06-22T13:50:58;27.70;97.70
9998;DHT22;5038;53.064;8.624;2023-06-22T13:53:27;27.60;97.80
9998;DHT22;5038;53.064;8.624;2023-06-22T13:55:56;27.60;97.80
9998;DHT22;5038;53.064;8.624;2023-06-22T13:58:25;27.60;97.90
9998;DHT22;5038;53.064;8.624;2023-06-22T14:00:53;27.60;97.90
9998;DHT22;5038;53.064;8.624;2023-06-22T14:03:41;27.60;98.00
9998;DHT22;5038;53.064;8.624;2023-06-22T14:06:12;27.60;98.00
9998;DHT22;5038;53.064;8.624;2023-06-22T14:08:40;27.50;98.00
9998;DHT22;5038;53.064;8.624;2023-06-22T14:11:10;27.50;98.10
9998;DHT22;5038;53.064;8.624;2023-06-22T14:13:38;27.40;98.10
9998;DHT22;5038;53.064;8.624;2023-06-22T14:16:09;27.50;98.20
9998;DHT22;5038;53.064;8.624;2023-06-22T14:18:37;27.40;98.20
9998;DHT22;5038;53.064;8.624;2023-06-22T14:21:05;27.30;98.20
9998;DHT22;5038;53.064;8.624;2023-06-22T14:23:33;27.30;98.30
9998;DHT22;5038;53.064;8.624;2023-06-22T14:26:01;27.30;98.40
9998;DHT22;5038;53.064;8.624;2023-06-22T14:28:31;27.20;98.50
9998;DHT22;5038;53.064;8.624;2023-06-22T14:30:59;27.20;98.50
9998;DHT22;5038;53.064;8.624;2023-06-22T14:33:27;27.20;98.60
9998;DHT22;5038;53.064;8.624;2023-06-22T14:35:56;27.20;98.80
9998;DHT22;5038;53.064;8.624;2023-06-22T14:38:24;27.10;98.90
9998;DHT22;5038;53.064;8.624;2023-06-22T14:40:52;27.00;99.10
9998;DHT22;5038;53.064;8.624;2023-06-22T14:43:25;27.00;99.10
9998;DHT22;5038;53.064;8.624;2023-06-22T14:45:55;27.00;99.30
9998;DHT22;5038;53.064;8.624;2023-06-22T14:48:23;26.90;99.40
9998;DHT22;5038;53.064;8.624;2023-06-22T14:50:53;26.90;99.40
9998;DHT22;5038;53.064;8.624;2023-06-22T14:53:21;26.80;99.40
9998;DHT22;5038;53.064;8.624;2023-06-22T14:55:50;26.80;99.60
9998;DHT22;5038;53.064;8.624;2023-06-22T14:58:18;26.70;99.70
9998;DHT22;5038;53.064;8.624;2023-06-22T15:00:46;26.70;99.80
9998;DHT22;5038;53.064;8.624;2023-06-22T15:03:15;26.60;99.90
9998;DHT22;5038;53.064;8.624;2023-06-22T15:05:48;26.60;99.90
9998;DHT22;5038;53.064;8.624;2023-06-22T15:08:17;26.60;99.90
9998;DHT22;5038;53.064;8.624;2023-06-22T15:10:45;26.50;99.90
9998;DHT22;5038;53.064;8.624;2023-06-22T15:13:13;26.40;99.90
9998;DHT22;5038;53.064;8.624;2023-06-22T15:15:41;26.40;99.90
9998;DHT22;5038;53.064;8.624;2023-06-22T15:18:09;26.40;99.90
9998;DHT22;5038;53.064;8.624;2023-06-22T15:20:39;26.30;99.90
9998;DHT22;5038;53.064;8.624;2023-06-22T15:23:08;26.20;99.90
9998;DHT22;5038;53.064;8.624;2023-06-22T15:25:36;26.20;99.90
9998;DHT22;5038;53.064;8.624;2023-06-22T15:28:07;26.10;99.90
9998;DHT22;5038;53.064;8.624;2023-06-22T15:30:35;26.00;99.90
9998;DHT22;5038;53.064;8.624;2023-06-22T15:33:03;26.00;99.90
9998;DHT22;5038;53.064;8.624;2023-06-22T15:35:31;26.00;99.90
9998;DHT22;5038;53.064;8.624;2023-06-22T15:38:01;25.90;99.90
9998;DHT22;5038;53.064;8.624;2023-06-22T15:40:29;25.90;99.90
9998;DHT22;5038;53.064;8.624;2023-06-22T15:42:58;25.90;99.90
9998;DHT22;5038;53.064;8.624;2023-06-22T15:45:26;25.80;99.90
9998;DHT22;5038;53.064;8.624;2023-06-22T15:47:55;25.80;99.90
9998;DHT22;5038;53.064;8.624;2023-06-22T15:50:23;25.80;99.90
9998;DHT22;5038;53.064;8.624;2023-06-22T15:52:51;25.80;99.90
9998;DHT22;5038;53.064;8.624;2023-06-22T15:55:21;25.70;99.90
9998;DHT22;5038;53.064;8.624;2023-06-22T15:57:49;25.70;99.90
9998;DHT22;5038;53.064;8.624;2023-06-22T16:00:18;25.70;99.90
9998;DHT22;5038;53.064;8.624;2023-06-22T16:02:46;25.60;99.90
9998;DHT22;5038;53.064;8.624;2023-06-22T16:05:15;25.60;99.90
9998;DHT22;5038;53.064;8.624;2023-06-22T16:07:43;25.60;99.90
9998;DHT22;5038;53.064;8.624;2023-06-22T16:10:11;25.60;99.90
9998;DHT22;5038;53.064;8.624;2023-06-22T16:12:43;25.50;99.90
9998;DHT22;5038;53.064;8.624;2023-06-22T16:15:12;25.50;99.90